Clinton-Sherman, OK

2:08 AM CDT on March 23, 2017 (GMT -0500)
Clinton-Sherman | | Change Station
Active Advisory: Wind Advisory

Elev 1919 ft 35.34 °N, 99.20 °W | Updated 15 minutes ago

Clear
Clear
62 °F
Feels Like 62 °F
N
16
Wind Variable Wind from SSE

Today
High -- | Low -- °F
--% Chance of Precip.
Yesterday
High -- | Low -- °F
Precip. -- in
Pressure 29.94 in
Visibility 8.0 miles
Clouds Clear
Dew Point 58 °F
Humidity 86%
Rainfall 0.00 in
Snow Depth Not available.
7:35 AM 7:51 PM
Waning Crescent, 25% visible
METAR KCSM 230653Z AUTO 16014KT 8SM CLR 17/14 A2998 RMK AO2 SLP138 T01670144
Pressure 29.94 in
Visibility 8.0 miles
Clouds Clear
Dew Point 58 °F
Humidity 86%
Rainfall 0.00 in
Snow Depth Not available.
7:35 AM 7:51 PM
Waning Crescent, 25% visible
METAR KCSM 230653Z AUTO 16014KT 8SM CLR 17/14 A2998 RMK AO2 SLP138 T01670144

Get Your Daily Forecast Email!

Thanks for signing up!

Be on the lookout for a verification email in your inbox.

You'll start receiving severe weather alerts in your inbox..

×

10-Day Weather Forecast

Almanac

Astronomy

Mar. 23, 2017 Rise Set
Actual Time
Civil Twilight
Nautical Twilight
Astronomical Twilight
Moon
Length of Visible Light
Length of Day
Tomorrow will be .
, % of the Moon is Illuminated

Today's Extremes

State Highs State Lows

Community

WunderPhotos

Upload Photos

1,962,540 photos uploaded!

WunderBlog® & News

Nearby

Air Quality

  Air Quality AQ Index Pollutant
Not available.

Snow Depth

Station Depth Elevation

Earthquake Activity

City Distance Mag. Time & Date
Minimum magnitude displayed is 2.5.

Earthquake Activity

City Distance Mag. Time & Date
Minimum magnitude displayed is 2.5.

Coastal Water Temperatures

Place Temperature

Stations

Nearby Weather Stations

Station Location Temp. Windchill Dew Point Humidity Wind Precip. Elev Updated Type
                   

Watches & Warnings

Wind Advisory
Issued: 8:40 PM CDT Mar. 22, 2017 – National Weather Service

... Wind Advisory in effect from noon to 8 PM CDT Thursday...

The National Weather Service in Norman has issued a Wind
Advisory, which is in effect from noon to 8 PM CDT Thursday.

* Timing... noon until 8 PM.

* Winds... 30 to 35 mph. Gusts 45 to 50 mph.

Precautionary/preparedness actions...

A Wind Advisory means that sustained winds greater than 30 mph
are expected. Winds this strong can make driving difficult,
especially for high profile vehicles. Use extra caution.